createdAt,value
2018-04-17T00:00:58.770Z,99.99
2018-04-17T00:02:20.307Z,99.99
2018-04-17T00:03:42.416Z,99.99
2018-04-17T00:05:04.494Z,99.99
2018-04-17T00:06:26.547Z,99.99
2018-04-17T00:07:48.345Z,99.99
2018-04-17T00:09:10.147Z,99.99
2018-04-17T00:10:31.973Z,99.99
2018-04-17T00:11:53.527Z,99.99
2018-04-17T00:13:15.316Z,99.99
2018-04-17T00:14:37.376Z,99.99
2018-04-17T00:15:59.437Z,99.99
2018-04-17T00:17:20.972Z,99.99
2018-04-17T00:18:42.784Z,99.99
2018-04-17T00:20:04.844Z,99.99
2018-04-17T00:21:26.899Z,99.99
2018-04-17T00:22:48.180Z,99.99
2018-04-17T00:24:09.979Z,99.99
2018-04-17T00:25:31.792Z,99.99
2018-04-17T00:26:53.600Z,99.99
2018-04-17T00:28:15.657Z,99.99
2018-04-17T00:29:37.725Z,99.99
2018-04-17T00:30:59.259Z,99.99
2018-04-17T00:32:21.348Z,99.99
2018-04-17T00:33:43.192Z,99.99
2018-04-17T00:35:04.723Z,99.99
2018-04-17T00:36:26.247Z,99.99
2018-04-17T00:37:47.530Z,99.99
2018-04-17T00:39:09.611Z,99.99
2018-04-17T00:40:31.698Z,99.99
2018-04-17T00:41:53.781Z,99.99
2018-04-17T00:43:15.589Z,99.99
2018-04-17T00:44:37.114Z,99.99
2018-04-17T00:45:58.931Z,99.99
2018-04-17T00:47:21.004Z,99.99
2018-04-17T00:48:42.560Z,99.99
2018-04-17T00:50:04.351Z,99.99
2018-04-17T00:51:25.875Z,99.99
2018-04-17T00:52:47.672Z,99.99
2018-04-17T00:54:09.717Z,99.99
2018-04-17T00:55:31.773Z,99.99
2018-04-17T00:56:53.353Z,99.99
2018-04-17T00:58:15.111Z,99.99
2018-04-17T00:59:36.647Z,99.99
2018-04-17T01:00:58.451Z,99.99
2018-04-17T01:02:20.491Z,99.99
2018-04-17T01:03:42.294Z,99.99
2018-04-17T01:05:04.355Z,99.99
2018-04-17T01:06:26.165Z,99.99
2018-04-17T01:07:48.233Z,99.99
2018-04-17T01:09:10.301Z,99.99
2018-04-17T01:10:31.832Z,99.99
2018-04-17T01:11:53.884Z,99.99
2018-04-17T01:13:15.982Z,99.99
2018-04-17T01:14:37.787Z,99.99
2018-04-17T01:15:59.293Z,99.99
2018-04-17T01:17:21.372Z,99.99
2018-04-17T01:18:43.440Z,99.99
2018-04-17T01:20:05.494Z,99.99
2018-04-17T01:21:27.569Z,99.99
2018-04-17T01:22:49.116Z,99.99
2018-04-17T01:24:11.173Z,99.99
2018-04-17T01:25:32.962Z,99.99
2018-04-17T01:26:54.771Z,99.99
2018-04-17T01:28:16.572Z,99.99
2018-04-17T01:29:38.376Z,99.99
2018-04-17T01:31:00.182Z,99.99
2018-04-17T01:32:21.968Z,99.99
2018-04-17T01:33:44.019Z,99.99
2018-04-17T01:35:05.824Z,99.99
2018-04-17T01:36:27.888Z,99.99
2018-04-17T01:37:49.947Z,99.99
2018-04-17T01:39:11.742Z,99.99
2018-04-17T01:40:33.261Z,99.99
2018-04-17T01:41:55.056Z,99.99
2018-04-17T01:43:17.115Z,99.99
2018-04-17T01:44:39.170Z,99.99
2018-04-17T01:46:00.977Z,99.99
2018-04-17T01:47:22.838Z,99.99
2018-04-17T01:48:44.900Z,99.99
2018-04-17T01:50:06.953Z,99.99
2018-04-17T01:51:28.488Z,99.99
2018-04-17T01:52:50.285Z,99.99
2018-04-17T01:54:12.346Z,99.99
2018-04-17T01:55:33.886Z,99.99
2018-04-17T01:56:55.685Z,99.99
2018-04-17T01:58:17.211Z,99.99
2018-04-17T01:59:39.265Z,99.99
2018-04-17T02:01:01.073Z,99.99
2018-04-17T02:02:23.140Z,99.99
2018-04-17T02:03:44.678Z,99.99
2018-04-17T02:05:06.475Z,99.99
2018-04-17T02:06:27.749Z,99.99
2018-04-17T02:07:49.790Z,99.99
2018-04-17T02:09:11.569Z,99.99
2018-04-17T02:10:33.120Z,99.99
2018-04-17T02:11:55.196Z,99.99
2018-04-17T02:13:17.276Z,99.99
2018-04-17T02:14:39.318Z,99.99
2018-04-17T02:16:01.107Z,99.99
2018-04-17T02:17:22.907Z,99.99
2018-04-17T02:18:44.967Z,99.99
2018-04-17T02:20:07.019Z,99.99
2018-04-17T02:21:28.812Z,99.99
2018-04-17T02:22:50.087Z,99.99
2018-04-17T02:24:12.153Z,99.99
2018-04-17T02:25:33.944Z,99.99
2018-04-17T02:26:55.739Z,99.99
2018-04-17T02:28:17.269Z,99.99
2018-04-17T02:29:39.329Z,99.99
2018-04-17T02:31:01.393Z,99.99
2018-04-17T02:32:23.196Z,99.99
2018-04-17T02:33:44.738Z,99.99
2018-04-17T02:35:06.562Z,99.99
2018-04-17T02:36:28.638Z,99.99
2018-04-17T02:37:50.683Z,99.99
2018-04-17T02:39:11.970Z,99.99
2018-04-17T02:40:33.756Z,99.99
2018-04-17T02:41:55.290Z,99.99
2018-04-17T02:43:17.343Z,99.99
2018-04-17T02:44:38.868Z,99.99
2018-04-17T02:46:00.930Z,99.99
2018-04-17T02:47:22.717Z,99.99
2018-04-17T02:48:44.642Z,99.99
2018-04-17T02:50:06.435Z,99.99
2018-04-17T02:51:28.506Z,99.99
2018-04-17T02:52:50.559Z,99.99
2018-04-17T02:54:12.365Z,99.99
2018-04-17T02:55:34.155Z,99.99
2018-04-17T02:56:56.221Z,99.99
2018-04-17T02:58:17.783Z,99.99
2018-04-17T02:59:39.567Z,99.99
2018-04-17T03:01:01.365Z,99.99
2018-04-17T03:02:23.419Z,99.99
2018-04-17T03:03:45.466Z,99.99
2018-04-17T03:05:07.001Z,99.99
2018-04-17T03:06:28.537Z,99.99
2018-04-17T03:07:50.070Z,99.99
2018-04-17T03:09:11.872Z,99.99
2018-04-17T03:10:33.662Z,99.99
2018-04-17T03:11:55.442Z,99.99
2018-04-17T03:13:17.235Z,99.99
2018-04-17T03:14:39.289Z,99.99
2018-04-17T03:16:01.094Z,99.99
2018-04-17T03:17:22.360Z,99.99
2018-04-17T03:18:43.622Z,99.99
2018-04-17T03:20:05.405Z,99.99
2018-04-17T03:21:27.184Z,99.99
2018-04-17T03:22:49.005Z,99.99
2018-04-17T03:24:10.821Z,99.99
2018-04-17T03:25:32.617Z,99.99
2018-04-17T03:26:54.158Z,99.99
2018-04-17T03:28:16.205Z,99.99
2018-04-17T03:29:38.003Z,99.99
2018-04-17T03:30:59.790Z,99.99
2018-04-17T03:32:21.854Z,99.99
2018-04-17T03:33:43.648Z,99.99
2018-04-17T03:35:05.179Z,99.99
2018-04-17T03:36:26.975Z,99.99
2018-04-17T03:37:48.780Z,99.99
2018-04-17T03:39:10.579Z,99.99
2018-04-17T03:40:32.112Z,99.99
2018-04-17T03:41:54.191Z,99.99
2018-04-17T03:43:15.986Z,99.99
2018-04-17T03:44:38.031Z,99.99
2018-04-17T03:46:00.084Z,99.99
2018-04-17T03:47:22.191Z,99.99
2018-04-17T03:48:43.976Z,99.99
2018-04-17T03:50:05.509Z,99.99
2018-04-17T03:51:27.580Z,99.99
2018-04-17T03:52:49.114Z,99.99
2018-04-17T03:54:11.174Z,99.99
2018-04-17T03:55:32.966Z,99.99
2018-04-17T03:56:54.514Z,99.99
2018-04-17T03:58:16.305Z,99.99
2018-04-17T03:59:38.361Z,99.99
2018-04-17T04:01:00.430Z,99.99
2018-04-17T04:02:22.497Z,99.99
2018-04-17T04:03:44.586Z,99.99
2018-04-17T04:05:06.114Z,99.99
2018-04-17T04:06:27.665Z,99.99
2018-04-17T04:07:49.451Z,99.99
2018-04-17T04:09:11.226Z,99.99
2018-04-17T04:10:33.341Z,99.99
2018-04-17T04:11:55.390Z,99.99
2018-04-17T04:13:17.439Z,99.99
2018-04-17T04:14:39.292Z,99.91
2018-04-17T04:16:01.353Z,98.92
2018-04-17T04:17:23.460Z,97.88
2018-04-17T04:18:45.506Z,97.12
2018-04-17T04:20:07.552Z,96.55
2018-04-17T04:21:29.355Z,96.08
2018-04-17T04:22:51.403Z,96.45
2018-04-17T04:24:12.924Z,96.55
2018-04-17T04:25:34.985Z,96.36
2018-04-17T04:26:56.538Z,95.79
2018-04-17T04:28:18.628Z,96.36
2018-04-17T04:29:40.686Z,96.55
2018-04-17T04:31:02.480Z,96.08
2018-04-17T04:32:24.557Z,95.89
2018-04-17T04:33:46.104Z,95.94
2018-04-17T04:35:08.168Z,96.03
2018-04-17T04:36:30.221Z,95.65
2018-04-17T04:37:51.502Z,96.5
2018-04-17T04:39:13.321Z,95.55
2018-04-17T04:40:34.851Z,95.94
2018-04-17T04:41:56.650Z,95.84
2018-04-17T04:43:18.444Z,96.03
2018-04-17T04:44:40.530Z,95.36
2018-04-17T04:46:02.594Z,96.12
2018-04-17T04:47:24.395Z,95.94
2018-04-17T04:48:45.933Z,95.84
2018-04-17T04:50:07.729Z,96.31
2018-04-17T04:51:29.786Z,96.36
2018-04-17T04:52:51.565Z,96.17
2018-04-17T04:54:13.107Z,96.65
2018-04-17T04:55:34.642Z,96.17
2018-04-17T04:56:56.438Z,97.22
2018-04-17T04:58:18.242Z,97.41
2018-04-17T04:59:40.043Z,97.78
2018-04-17T05:01:02.094Z,98.26
2018-04-17T05:02:24.168Z,98.55
2018-04-17T05:03:46.229Z,98.55
2018-04-17T05:05:08.292Z,98.55
2018-04-17T05:06:30.401Z,98.64
2018-04-17T05:07:52.462Z,99.36
2018-04-17T05:09:14.277Z,99.36
2018-04-17T05:10:36.089Z,99.84
2018-04-17T05:11:58.175Z,99.99
2018-04-17T05:13:19.986Z,99.99
2018-04-17T05:14:42.044Z,99.99
2018-04-17T05:16:04.111Z,99.99
2018-04-17T05:17:26.166Z,99.99
2018-04-17T05:18:48.003Z,99.99
2018-04-17T05:20:09.815Z,99.99
2018-04-17T05:21:31.617Z,99.99
2018-04-17T05:22:53.672Z,99.99
2018-04-17T05:24:15.475Z,99.99
2018-04-17T05:25:37.272Z,99.99
2018-04-17T05:26:59.342Z,99.99
2018-04-17T05:28:21.138Z,99.99
2018-04-17T05:29:43.210Z,99.99
2018-04-17T05:31:05.261Z,99.99
2018-04-17T05:32:27.334Z,99.99
2018-04-17T05:33:49.142Z,99.99
2018-04-17T05:35:11.218Z,99.99
2018-04-17T05:36:33.018Z,99.99
2018-04-17T05:37:55.085Z,99.99
2018-04-17T05:39:16.617Z,99.99
2018-04-17T05:40:38.437Z,99.99
2018-04-17T05:42:00.499Z,99.99
2018-04-17T05:43:22.569Z,99.99
2018-04-17T05:44:44.643Z,99.99
2018-04-17T05:46:06.177Z,99.99
2018-04-17T05:47:28.237Z,99.99
2018-04-17T05:48:50.317Z,99.99
2018-04-17T05:50:12.162Z,99.99
2018-04-17T05:51:33.447Z,99.99
2018-04-17T05:52:55.246Z,99.99
2018-04-17T05:54:16.777Z,99.99
2018-04-17T05:55:38.858Z,99.99
2018-04-17T05:57:00.798Z,99.99
2018-04-17T05:58:22.870Z,99.99
2018-04-17T05:59:44.924Z,99.99
2018-04-17T06:01:07.002Z,99.99
2018-04-17T06:02:29.098Z,99.99
2018-04-17T06:03:50.886Z,99.99
2018-04-17T06:05:13.003Z,99.99
2018-04-17T06:06:35.088Z,99.99
2018-04-17T06:07:56.400Z,99.99
2018-04-17T06:09:18.192Z,99.99
2018-04-17T06:10:39.988Z,99.99
2018-04-17T06:12:01.816Z,99.99
2018-04-17T06:13:23.620Z,99.99
2018-04-17T06:14:45.763Z,99.99
2018-04-17T06:16:07.038Z,99.99
2018-04-17T06:17:29.108Z,99.99
2018-04-17T06:18:50.380Z,99.99
2018-04-17T06:20:12.446Z,99.99
2018-04-17T06:21:34.018Z,99.99
2018-04-17T06:22:55.560Z,99.99
2018-04-17T06:24:17.629Z,99.99
2018-04-17T06:25:39.174Z,99.99
2018-04-17T06:27:00.994Z,99.99
2018-04-17T06:28:22.806Z,99.99
2018-04-17T06:29:44.337Z,99.99
2018-04-17T06:31:05.886Z,99.99
2018-04-17T06:32:27.975Z,99.99
2018-04-17T06:33:50.049Z,99.74
2018-04-17T06:35:11.647Z,99.07
2018-04-17T06:36:33.733Z,96.27
2018-04-17T06:37:55.551Z,94.96
2018-04-17T06:39:17.368Z,91.88
2018-04-17T06:40:38.657Z,89.61
2018-04-17T06:42:00.863Z,87.37
2018-04-17T06:43:22.668Z,84.71
2018-04-17T06:44:44.740Z,82.66
2018-04-17T06:46:06.309Z,81.98
2018-04-17T06:47:28.159Z,81.45
2018-04-17T06:48:50.001Z,79.74
2018-04-17T06:50:11.817Z,77.16
2018-04-17T06:51:33.904Z,76.14
2018-04-17T06:52:56.032Z,74.43
2018-04-17T06:54:17.897Z,72.33
2018-04-17T06:55:39.716Z,71.58
2018-04-17T06:57:01.797Z,70.87
2018-04-17T06:58:23.868Z,70.97
2018-04-17T06:59:45.683Z,70.67
2018-04-17T07:01:07.769Z,70.19
2018-04-17T07:02:29.327Z,68.7
2018-04-17T07:03:51.404Z,66.47
2018-04-17T07:05:13.540Z,66.99
2018-04-17T07:06:35.373Z,65.63
2018-04-17T07:07:57.443Z,66.05
2018-04-17T07:09:19.522Z,63.55
2018-04-17T07:10:41.354Z,63.09
2018-04-17T07:12:03.429Z,62.67
2018-04-17T07:13:25.508Z,62.12
2018-04-17T07:14:46.795Z,62.02
2018-04-17T07:16:08.617Z,61.08
2018-04-17T07:17:30.725Z,60.78
2018-04-17T07:18:52.801Z,60.91
2018-04-17T07:20:14.880Z,59.09
2018-04-17T07:21:36.691Z,58.22
2018-04-17T07:22:58.762Z,57.85
2018-04-17T07:24:20.838Z,57.53
2018-04-17T07:25:42.915Z,57.92
2018-04-17T07:27:04.730Z,57.34
2018-04-17T07:28:26.814Z,56.85
2018-04-17T07:29:48.645Z,57.11
2018-04-17T07:31:10.719Z,56.62
2018-04-17T07:32:32.808Z,56.72
2018-04-17T07:33:54.876Z,56.6
2018-04-17T07:35:16.716Z,56.62
2018-04-17T07:36:38.798Z,55.75
2018-04-17T07:38:00.874Z,55.09
2018-04-17T07:39:22.955Z,55.58
2018-04-17T07:40:44.511Z,53.7
2018-04-17T07:42:06.067Z,54.36
2018-04-17T07:43:27.362Z,54.21
2018-04-17T07:44:49.176Z,54.57
2018-04-17T07:46:11.002Z,55.44
2018-04-17T07:47:33.121Z,57.17
2018-04-17T07:48:54.960Z,57.95
2018-04-17T07:50:16.766Z,54.42
2018-04-17T07:51:38.828Z,54.94
2018-04-17T07:53:00.658Z,57.32
2018-04-17T07:54:22.470Z,61.82
2018-04-17T07:55:44.039Z,63.66
2018-04-17T07:57:05.571Z,67.62
2018-04-17T07:58:27.395Z,70.9
2018-04-17T07:59:49.213Z,73.3
2018-04-17T08:01:11.020Z,76.31
2018-04-17T08:02:33.085Z,78.83
2018-04-17T08:03:54.646Z,80.61
2018-04-17T08:05:16.739Z,84.12
2018-04-17T08:06:38.287Z,84.95
2018-04-17T08:07:59.847Z,82.54
2018-04-17T08:09:21.704Z,84.08
2018-04-17T08:10:43.266Z,86.38
2018-04-17T08:12:05.352Z,86.38
2018-04-17T08:13:27.154Z,86.48
2018-04-17T08:14:48.972Z,85.81
2018-04-17T08:16:10.517Z,86.44
2018-04-17T08:17:32.335Z,87.59
2018-04-17T08:18:54.226Z,87.21
2018-04-17T08:20:16.501Z,85.96
2018-04-17T08:21:38.309Z,86.72
2018-04-17T08:23:00.398Z,87.88
2018-04-17T08:24:22.204Z,90.08
2018-04-17T08:25:44.303Z,89.12
2018-04-17T08:27:05.858Z,87.4
2018-04-17T08:28:27.948Z,87.98
2018-04-17T08:29:49.740Z,86.58
2018-04-17T08:31:11.556Z,86
2018-04-17T08:32:33.613Z,86.48
2018-04-17T08:33:55.696Z,86.58
2018-04-17T08:35:17.507Z,87.15
2018-04-17T08:36:39.572Z,85.42
2018-04-17T08:38:01.439Z,84.85
2018-04-17T08:39:23.243Z,85.81
2018-04-17T08:40:44.794Z,85.04
2018-04-17T08:42:06.094Z,86
2018-04-17T08:43:28.149Z,86.87
2018-04-17T08:44:50.217Z,85.71
2018-04-17T08:46:11.753Z,85.04
2018-04-17T08:47:33.570Z,86.38
2018-04-17T08:48:55.166Z,84.75
2018-04-17T08:50:17.238Z,85.52
2018-04-17T08:51:39.036Z,86.29
2018-04-17T08:53:00.577Z,87.73
2018-04-17T08:54:22.642Z,86.19
2018-04-17T08:55:44.806Z,85.42
2018-04-17T08:57:06.880Z,85.42
2018-04-17T08:58:28.679Z,85.91
2018-04-17T08:59:50.501Z,86.58
2018-04-17T09:01:12.312Z,85.75
2018-04-17T09:02:34.104Z,86.43
2018-04-17T09:03:55.403Z,84.89
2018-04-17T09:05:17.618Z,85.75
2018-04-17T09:06:39.696Z,84.7
2018-04-17T09:08:01.775Z,84.8
2018-04-17T09:09:23.317Z,85.28
2018-04-17T09:10:45.388Z,85.57
2018-04-17T09:12:07.477Z,85.28
2018-04-17T09:13:29.031Z,85.28
2018-04-17T09:14:51.122Z,84.12
2018-04-17T09:16:12.944Z,84.26
2018-04-17T09:17:34.749Z,82.43
2018-04-17T09:18:56.352Z,83.74
2018-04-17T09:20:18.422Z,84.31
2018-04-17T09:21:40.485Z,84.45
2018-04-17T09:23:02.556Z,85.32
2018-04-17T09:24:24.620Z,86.47
2018-04-17T09:25:46.717Z,84.45
2018-04-17T09:27:08.517Z,85.99
2018-04-17T09:28:30.352Z,84.94
2018-04-17T09:29:52.426Z,85.8
2018-04-17T09:31:14.231Z,83.92
2018-04-17T09:32:36.027Z,82.67
2018-04-17T09:33:58.113Z,83.15
2018-04-17T09:35:19.935Z,83.34
2018-04-17T09:36:41.743Z,82.96
2018-04-17T09:38:03.283Z,82.48
2018-04-17T09:39:24.836Z,81.23
2018-04-17T09:40:46.128Z,81.52
2018-04-17T09:42:07.924Z,82.48
2018-04-17T09:43:29.730Z,82.57
2018-04-17T09:44:51.816Z,82.96
2018-04-17T09:46:13.636Z,83.63
2018-04-17T09:47:35.449Z,83.09
2018-04-17T09:48:57.250Z,82.04
2018-04-17T09:50:19.047Z,83.23
2018-04-17T09:51:40.883Z,82.75
2018-04-17T09:53:02.972Z,83.62
2018-04-17T09:54:25.026Z,80.06
2018-04-17T09:55:47.092Z,80.15
2018-04-17T09:57:09.188Z,81.75
2018-04-17T09:58:31.040Z,80.4
2018-04-17T09:59:52.844Z,80.5
2018-04-17T10:01:14.915Z,80.5
2018-04-17T10:02:36.736Z,79.58
2018-04-17T10:03:58.824Z,79.96
2018-04-17T10:05:20.630Z,80.73
2018-04-17T10:06:42.686Z,80.29
2018-04-17T10:08:04.749Z,78.65
2018-04-17T10:09:26.564Z,78.85
2018-04-17T10:10:48.381Z,78.65
2018-04-17T10:12:10.194Z,79.03
2018-04-17T10:13:32.003Z,79.71
2018-04-17T10:14:53.546Z,79.17
2018-04-17T10:16:15.628Z,78.02
2018-04-17T10:17:37.702Z,77.15
2018-04-17T10:18:59.250Z,76.28
2018-04-17T10:20:21.052Z,76.76
2018-04-17T10:21:42.867Z,76.38
2018-04-17T10:23:04.940Z,74.65
2018-04-17T10:24:26.990Z,74.68
2018-04-17T10:25:48.554Z,75.23
2018-04-17T10:27:10.637Z,78.15
2018-04-17T10:28:32.222Z,77.19
2018-04-17T10:29:54.300Z,76.67
2018-04-17T10:31:16.381Z,76.03
2018-04-17T10:32:38.202Z,76.51
2018-04-17T10:34:00.284Z,77.09
2018-04-17T10:35:22.344Z,76.8
2018-04-17T10:36:44.420Z,76.61
2018-04-17T10:38:06.499Z,76.48
2018-04-17T10:39:28.295Z,76.86
2018-04-17T10:40:50.442Z,77.34
2018-04-17T10:42:12.262Z,77.63
2018-04-17T10:43:34.077Z,78.21
2018-04-17T10:44:55.885Z,77.44
2018-04-17T10:46:17.680Z,79.17
2018-04-17T10:47:39.646Z,78.31
2018-04-17T10:49:01.716Z,77.44
2018-04-17T10:50:23.807Z,77.53
2018-04-17T10:51:45.624Z,78.21
2018-04-17T10:53:07.710Z,79.5
2018-04-17T10:54:29.809Z,78.06
2018-04-17T10:55:51.625Z,79.41
2018-04-17T10:57:13.697Z,78.54
2018-04-17T10:58:35.263Z,78.44
2018-04-17T10:59:56.812Z,77.38
2018-04-17T11:01:18.356Z,80.94
2018-04-17T11:02:40.156Z,79.89
2018-04-17T11:04:01.764Z,78.83
2018-04-17T11:05:23.625Z,77.86
2018-04-17T11:06:45.436Z,77.09
2018-04-17T11:08:07.504Z,77.38
2018-04-17T11:09:29.328Z,77.76
2018-04-17T11:10:51.131Z,78.29
2018-04-17T11:12:13.189Z,76.93
2018-04-17T11:13:35.277Z,76.36
2018-04-17T11:14:57.094Z,76.55
2018-04-17T11:16:18.967Z,75.1
2018-04-17T11:17:41.067Z,75.97
2018-04-17T11:19:02.867Z,75.01
2018-04-17T11:20:24.413Z,75.97
2018-04-17T11:21:46.230Z,76.71
2018-04-17T11:23:08.309Z,76.32
2018-04-17T11:24:30.509Z,76.61
2018-04-17T11:25:52.318Z,74.88
2018-04-17T11:27:14.134Z,72.99
2018-04-17T11:28:36.209Z,73.85
2018-04-17T11:29:58.005Z,76.65
2018-04-17T11:31:19.833Z,76.45
2018-04-17T11:32:41.907Z,77.33
2018-04-17T11:34:03.467Z,77.51
2018-04-17T11:35:25.538Z,78.25
2018-04-17T11:36:47.352Z,78.92
2018-04-17T11:38:09.165Z,76.9
2018-04-17T11:39:30.971Z,77.38
2018-04-17T11:40:52.794Z,77.38
2018-04-17T11:42:14.905Z,79.5
2018-04-17T11:43:36.474Z,79.5
2018-04-17T11:44:58.558Z,77.96
2018-04-17T11:46:20.422Z,77.96
2018-04-17T11:47:42.241Z,80.46
2018-04-17T11:49:04.306Z,81.2
2018-04-17T11:50:25.867Z,80.37
2018-04-17T11:51:47.960Z,78.92
2018-04-17T11:53:10.075Z,79.66
2018-04-17T11:54:32.155Z,80.91
2018-04-17T11:55:54.245Z,81.2
2018-04-17T11:57:16.333Z,79.75
2018-04-17T11:58:38.254Z,80.91
2018-04-17T11:59:59.784Z,81.39
2018-04-17T12:01:21.870Z,79.56
2018-04-17T12:02:43.955Z,79.66
2018-04-17T12:04:05.783Z,81.2
2018-04-17T12:05:27.596Z,82.74
2018-04-17T12:06:49.415Z,81.39
2018-04-17T12:08:11.227Z,80.33
2018-04-17T12:09:33.031Z,81.01
2018-04-17T12:10:54.854Z,80.91
2018-04-17T12:12:16.953Z,80.04
2018-04-17T12:13:39.021Z,81.1
2018-04-17T12:15:00.834Z,81.1
2018-04-17T12:16:22.660Z,79.85
2018-04-17T12:17:44.762Z,80.91
2018-04-17T12:19:06.617Z,81.16
2018-04-17T12:20:28.789Z,81.93
2018-04-17T12:21:50.330Z,82.31
2018-04-17T12:23:12.170Z,82.94
2018-04-17T12:24:34.288Z,83.23
2018-04-17T12:25:56.169Z,83.14
2018-04-17T12:27:17.986Z,86.16
2018-04-17T12:28:39.791Z,84.14
2018-04-17T12:30:01.887Z,81.96
2018-04-17T12:31:23.454Z,83.37
2018-04-17T12:32:45.269Z,82.35
2018-04-17T12:34:07.340Z,82.93
2018-04-17T12:35:29.409Z,81.29
2018-04-17T12:36:51.491Z,82.26
2018-04-17T12:38:13.379Z,81.68
2018-04-17T12:39:35.207Z,81.58
2018-04-17T12:40:57.274Z,81.29
2018-04-17T12:42:19.116Z,80.04
2018-04-17T12:43:40.954Z,80.71
2018-04-17T12:45:03.067Z,81.1
2018-04-17T12:46:25.157Z,80.43
2018-04-17T12:47:46.963Z,82.16
2018-04-17T12:49:09.111Z,82.26
2018-04-17T12:50:31.212Z,83.31
2018-04-17T12:51:53.038Z,82.54
2018-04-17T12:53:14.664Z,81.2
2018-04-17T12:54:36.755Z,79.85
2018-04-17T12:55:58.841Z,79.08
2018-04-17T12:57:20.660Z,80.71
2018-04-17T12:58:42.216Z,80.91
2018-04-17T13:00:04.311Z,81.06
2018-04-17T13:01:26.435Z,80.87
2018-04-17T13:02:48.272Z,81.93
2018-04-17T13:04:10.404Z,80.68
2018-04-17T13:05:32.495Z,83.37
2018-04-17T13:06:54.580Z,84.72
2018-04-17T13:08:16.131Z,82.83
2018-04-17T13:09:38.215Z,81.68
2018-04-17T13:11:00.325Z,81.1
2018-04-17T13:12:22.142Z,80.81
2018-04-17T13:13:43.968Z,83.61
2018-04-17T13:15:05.788Z,84.47
2018-04-17T13:16:27.610Z,84.47
2018-04-17T13:17:49.702Z,83.31
2018-04-17T13:19:11.523Z,83.31
2018-04-17T13:20:32.825Z,82.97
2018-04-17T13:21:54.890Z,83.51
2018-04-17T13:23:16.977Z,84.38
2018-04-17T13:24:39.066Z,81.48
2018-04-17T13:26:01.150Z,81.2
2018-04-17T13:27:22.703Z,80.27
2018-04-17T13:28:44.780Z,78.69
2018-04-17T13:30:06.588Z,79.66
2018-04-17T13:31:28.668Z,79.66
2018-04-17T13:32:50.736Z,80.23
2018-04-17T13:34:11.755Z,84.03
2018-04-17T13:35:33.580Z,83.03
2018-04-17T13:36:55.650Z,81.91
2018-04-17T13:38:17.519Z,80.85
2018-04-17T13:39:39.672Z,81.14
2018-04-17T13:41:01.754Z,81.33
2018-04-17T13:42:23.935Z,79.21
2018-04-17T13:43:46.108Z,77.38
2018-04-17T13:45:08.191Z,77.96
2018-04-17T13:46:30.291Z,78.73
2018-04-17T13:47:52.217Z,79.11
2018-04-17T13:49:14.006Z,79.89
2018-04-17T13:50:36.096Z,78.44
2018-04-17T13:51:58.218Z,78.73
2018-04-17T13:53:20.304Z,79.21
2018-04-17T13:54:41.849Z,79.08
2018-04-17T13:56:03.412Z,79.75
2018-04-17T13:57:25.485Z,78.21
2018-04-17T13:58:47.610Z,80.71
2018-04-17T14:00:09.715Z,81.29
2018-04-17T14:01:31.269Z,81.29
2018-04-17T14:02:53.119Z,81.29
2018-04-17T14:04:15.195Z,81.87
2018-04-17T14:05:37.310Z,82.45
2018-04-17T14:06:59.159Z,82.45
2018-04-17T14:08:21.240Z,82.83
2018-04-17T14:09:43.333Z,83.51
2018-04-17T14:11:05.351Z,81.96
2018-04-17T14:12:27.146Z,81.01
2018-04-17T14:13:49.233Z,82.06
2018-04-17T14:15:10.795Z,83.51
2018-04-17T14:16:32.614Z,82.74
2018-04-17T14:17:54.440Z,82.83
2018-04-17T14:19:16.516Z,82.45
2018-04-17T14:20:38.333Z,83.7
2018-04-17T14:22:00.418Z,82.35
2018-04-17T14:23:22.516Z,81.39
2018-04-17T14:24:44.380Z,82.54
2018-04-17T14:26:06.447Z,84.56
2018-04-17T14:27:28.568Z,84.18
2018-04-17T14:28:50.657Z,82.35
2018-04-17T14:30:12.723Z,81.58
2018-04-17T14:31:34.805Z,81.48
2018-04-17T14:32:56.901Z,83.12
2018-04-17T14:34:18.484Z,83.41
2018-04-17T14:35:40.563Z,81.87
2018-04-17T14:37:02.651Z,81.24
2018-04-17T14:38:24.749Z,80.85
2018-04-17T14:39:46.838Z,80.56
2018-04-17T14:41:08.933Z,80.85
2018-04-17T14:42:31.011Z,79.69
2018-04-17T14:43:53.086Z,80.37
2018-04-17T14:45:14.920Z,80.94
2018-04-17T14:46:37.026Z,81.62
2018-04-17T14:47:59.135Z,81.62
2018-04-17T14:49:21.256Z,81.33
2018-04-17T14:50:43.066Z,80.76
2018-04-17T14:52:05.139Z,81.14
2018-04-17T14:53:27.229Z,80.66
2018-04-17T14:54:49.299Z,78.83
2018-04-17T14:56:11.136Z,81.04
2018-04-17T14:57:32.984Z,82.68
2018-04-17T14:58:55.069Z,84.03
2018-04-17T15:00:16.925Z,82.49
2018-04-17T15:01:38.759Z,82.59
2018-04-17T15:03:00.566Z,81.52
2018-04-17T15:04:22.660Z,81.14
2018-04-17T15:05:44.494Z,80.76
2018-04-17T15:07:06.582Z,80.56
2018-04-17T15:08:28.698Z,80.46
2018-04-17T15:09:50.573Z,80.85
2018-04-17T15:11:12.438Z,81.04
2018-04-17T15:12:34.281Z,79.98
2018-04-17T15:13:55.875Z,78.73
2018-04-17T15:15:17.819Z,80.37
2018-04-17T15:16:39.638Z,80.91
2018-04-17T15:18:01.459Z,80.94
2018-04-17T15:19:23.567Z,82.01
2018-04-17T15:20:45.629Z,81.43
2018-04-17T15:22:07.741Z,82.2
2018-04-17T15:23:29.855Z,80.85
2018-04-17T15:24:52.072Z,80.27
2018-04-17T15:26:13.896Z,81.1
2018-04-17T15:27:36.023Z,81.24
2018-04-17T15:28:58.109Z,81.33
2018-04-17T15:30:20.202Z,81.43
2018-04-17T15:31:42.306Z,81.33
2018-04-17T15:33:04.120Z,80.66
2018-04-17T15:34:26.212Z,80.66
2018-04-17T15:35:48.057Z,80.33
2018-04-17T15:37:09.921Z,80.43
2018-04-17T15:38:32.058Z,80.81
2018-04-17T15:39:54.192Z,81.2
2018-04-17T15:41:16.509Z,83.7
2018-04-17T15:42:38.077Z,84.05
2018-04-17T15:44:00.192Z,84.33
2018-04-17T15:45:22.048Z,84.53
2018-04-17T15:46:43.874Z,84.81
2018-04-17T15:48:05.716Z,84.53
2018-04-17T15:49:27.830Z,85.78
2018-04-17T15:50:50.009Z,84.53
2018-04-17T15:52:11.913Z,84.09
2018-04-17T15:53:34.023Z,83.41
2018-04-17T15:54:56.124Z,81.29
2018-04-17T15:56:17.938Z,81.01
2018-04-17T15:57:40.070Z,81.29
2018-04-17T15:59:02.169Z,81.24
2018-04-17T16:00:24.278Z,81.43
2018-04-17T16:01:46.404Z,79.79
2018-04-17T16:03:08.247Z,80.37
2018-04-17T16:04:30.112Z,80.56
2018-04-17T16:05:51.969Z,80.66
2018-04-17T16:07:14.087Z,79.02
2018-04-17T16:08:36.221Z,80.31
2018-04-17T16:09:58.401Z,79.02
2018-04-17T16:11:20.312Z,79.06
2018-04-17T16:12:42.192Z,78.38
2018-04-17T16:14:04.390Z,78.92
2018-04-17T16:15:26.504Z,78.83
2018-04-17T16:16:48.631Z,78.44
2018-04-17T16:18:10.744Z,79.11
2018-04-17T16:19:32.845Z,78.83
2018-04-17T16:20:54.706Z,78.73
2018-04-17T16:22:16.841Z,77.58
2018-04-17T16:23:38.687Z,77.28
2018-04-17T16:25:00.538Z,77.58
2018-04-17T16:26:22.139Z,77.96
2018-04-17T16:27:44.008Z,78.58
2018-04-17T16:29:06.120Z,78.86
2018-04-17T16:30:28.233Z,78.92
2018-04-17T16:31:50.086Z,80.02
2018-04-17T16:33:12.016Z,78.96
2018-04-17T16:34:34.154Z,79.11
2018-04-17T16:35:56.259Z,78.83
2018-04-17T16:37:18.384Z,77.38
2018-04-17T16:38:40.246Z,77.67
2018-04-17T16:40:02.365Z,77.67
2018-04-17T16:41:24.209Z,78.83
2018-04-17T16:42:46.092Z,78.63
2018-04-17T16:44:08.217Z,78.54
2018-04-17T16:45:30.311Z,78.63
2018-04-17T16:46:52.429Z,78.15
2018-04-17T16:48:14.537Z,77.83
2018-04-17T16:49:38.054Z,78.31
2018-04-17T16:50:59.662Z,78.88
2018-04-17T16:52:21.816Z,79.94
2018-04-17T16:53:43.918Z,80.58
2018-04-17T16:55:06.074Z,80.19
2018-04-17T16:56:28.201Z,80.48
2018-04-17T16:57:50.322Z,80.19
2018-04-17T16:59:12.173Z,80.29
2018-04-17T17:00:34.047Z,80.73
2018-04-17T17:01:55.893Z,80.35
2018-04-17T17:03:18.024Z,80.73
2018-04-17T17:04:40.134Z,80.92
2018-04-17T17:06:02.257Z,81.17
2018-04-17T17:07:24.114Z,81.65
2018-04-17T17:08:46.231Z,82.61
2018-04-17T17:10:08.121Z,82.42
2018-04-17T17:11:30.238Z,82.71
2018-04-17T17:12:52.080Z,83.58
2018-04-17T17:14:14.187Z,82.96
2018-04-17T17:15:35.759Z,82.96
2018-04-17T17:16:57.878Z,83.63
2018-04-17T17:18:19.973Z,84.01
2018-04-17T17:19:42.059Z,84.4
2018-04-17T17:21:03.888Z,84.78
2018-04-17T17:22:25.730Z,84.78
2018-04-17T17:23:47.859Z,85.71
2018-04-17T17:25:09.711Z,85.99
2018-04-17T17:26:31.554Z,85.8
2018-04-17T17:27:53.374Z,86.66
2018-04-17T17:29:15.471Z,86.85
2018-04-17T17:30:37.570Z,87.43
2018-04-17T17:31:59.391Z,86.91
2018-04-17T17:33:20.962Z,86.66
2018-04-17T17:34:43.085Z,87.39
2018-04-17T17:36:05.180Z,87.39
2018-04-17T17:37:27.270Z,87.58